Madrid, New Mexico
Current Conditions -  °F | °C
As of 7:53 PM on Wednesday 22 Oct 2014 (Local Time) from KSAF Reporting Station
Clear Clear  
Wind Chill: 52°   Ceiling: Unl
Heat Index: 52°   Visibility: 10mi
Dew Point: 38°   Wind: 6mph
Humidity: 59%   Direction: 340°NNW
Pressure: 30.19"   Gusts: NA
Location:  35.4436°N, 106.089°W
Report Text: KSAF 230153Z 34005KT 10SM CLR 11/03 A3019 RMK AO2 SLP171 T01110033
Loading
Personal Weather Stations






























Interactive Weather Map
Tropical Storm Tracking
New forecast layout! Learn more

10-Day Weather Forecast

Advertisements
Track Severe Weather on mobile